sensor_id;sensor_type;location;lat;lon;timestamp;P1;durP1;ratioP1;P2;durP2;ratioP2
14256;SDS011;7212;53.254;6.456;2022-07-25T00:02:15;2.70;;;2.50;;
14256;SDS011;7212;53.254;6.456;2022-07-25T00:04:41;2.70;;;2.50;;
14256;SDS011;7212;53.254;6.456;2022-07-25T00:07:06;2.63;;;2.42;;
14256;SDS011;7212;53.254;6.456;2022-07-25T00:09:32;2.45;;;2.30;;
14256;SDS011;7212;53.254;6.456;2022-07-25T00:11:58;2.45;;;2.35;;
14256;SDS011;7212;53.254;6.456;2022-07-25T00:14:23;2.80;;;2.60;;
14256;SDS011;7212;53.254;6.456;2022-07-25T00:16:49;2.45;;;2.25;;
14256;SDS011;7212;53.254;6.456;2022-07-25T00:19:15;2.58;;;2.38;;
14256;SDS011;7212;53.254;6.456;2022-07-25T00:21:41;2.70;;;2.50;;
14256;SDS011;7212;53.254;6.456;2022-07-25T00:24:06;2.65;;;2.45;;
14256;SDS011;7212;53.254;6.456;2022-07-25T00:26:32;2.45;;;2.25;;
14256;SDS011;7212;53.254;6.456;2022-07-25T00:28:57;2.25;;;2.05;;
14256;SDS011;7212;53.254;6.456;2022-07-25T00:31:23;2.10;;;2.00;;
14256;SDS011;7212;53.254;6.456;2022-07-25T00:33:49;2.58;;;2.38;;
14256;SDS011;7212;53.254;6.456;2022-07-25T00:36:14;2.90;;;2.70;;
14256;SDS011;7212;53.254;6.456;2022-07-25T00:38:40;2.40;;;2.20;;
14256;SDS011;7212;53.254;6.456;2022-07-25T00:41:06;2.60;;;2.40;;
14256;SDS011;7212;53.254;6.456;2022-07-25T00:43:31;2.78;;;2.58;;
14256;SDS011;7212;53.254;6.456;2022-07-25T00:45:57;2.78;;;2.55;;
14256;SDS011;7212;53.254;6.456;2022-07-25T00:48:23;2.28;;;2.08;;
14256;SDS011;7212;53.254;6.456;2022-07-25T00:50:49;2.60;;;2.40;;
14256;SDS011;7212;53.254;6.456;2022-07-25T00:53:15;2.88;;;2.67;;
14256;SDS011;7212;53.254;6.456;2022-07-25T00:55:42;2.65;;;2.45;;
14256;SDS011;7212;53.254;6.456;2022-07-25T00:58:07;2.60;;;2.40;;
14256;SDS011;7212;53.254;6.456;2022-07-25T01:00:33;2.47;;;2.30;;
14256;SDS011;7212;53.254;6.456;2022-07-25T01:02:59;2.53;;;2.33;;
14256;SDS011;7212;53.254;6.456;2022-07-25T01:05:25;2.60;;;2.40;;
14256;SDS011;7212;53.254;6.456;2022-07-25T01:07:50;2.80;;;2.60;;
14256;SDS011;7212;53.254;6.456;2022-07-25T01:10:16;2.70;;;2.50;;
14256;SDS011;7212;53.254;6.456;2022-07-25T01:12:49;2.97;;;2.78;;
14256;SDS011;7212;53.254;6.456;2022-07-25T01:15:18;2.25;;;2.15;;
14256;SDS011;7212;53.254;6.456;2022-07-25T01:17:45;2.70;;;2.50;;
14256;SDS011;7212;53.254;6.456;2022-07-25T01:20:21;2.70;;;2.50;;
14256;SDS011;7212;53.254;6.456;2022-07-25T01:22:48;2.75;;;2.55;;
14256;SDS011;7212;53.254;6.456;2022-07-25T01:25:14;2.90;;;2.70;;
14256;SDS011;7212;53.254;6.456;2022-07-25T01:27:40;2.53;;;2.35;;
14256;SDS011;7212;53.254;6.456;2022-07-25T01:30:08;2.70;;;2.50;;
14256;SDS011;7212;53.254;6.456;2022-07-25T01:32:36;2.63;;;2.42;;
14256;SDS011;7212;53.254;6.456;2022-07-25T01:35:05;2.65;;;2.50;;
14256;SDS011;7212;53.254;6.456;2022-07-25T01:37:32;2.97;;;2.40;;
14256;SDS011;7212;53.254;6.456;2022-07-25T01:39:58;2.58;;;2.38;;
14256;SDS011;7212;53.254;6.456;2022-07-25T01:42:23;2.80;;;2.60;;
14256;SDS011;7212;53.254;6.456;2022-07-25T01:44:49;3.05;;;2.85;;
14256;SDS011;7212;53.254;6.456;2022-07-25T01:47:14;3.15;;;2.95;;
14256;SDS011;7212;53.254;6.456;2022-07-25T01:49:43;2.88;;;2.67;;
14256;SDS011;7212;53.254;6.456;2022-07-25T01:52:09;2.70;;;2.50;;
14256;SDS011;7212;53.254;6.456;2022-07-25T01:54:35;3.00;;;2.80;;
14256;SDS011;7212;53.254;6.456;2022-07-25T01:57:00;2.78;;;2.58;;
14256;SDS011;7212;53.254;6.456;2022-07-25T01:59:28;3.30;;;3.00;;
14256;SDS011;7212;53.254;6.456;2022-07-25T02:01:54;3.20;;;3.00;;
14256;SDS011;7212;53.254;6.456;2022-07-25T02:04:19;3.22;;;3.03;;
14256;SDS011;7212;53.254;6.456;2022-07-25T02:06:45;3.40;;;3.10;;
14256;SDS011;7212;53.254;6.456;2022-07-25T02:09:11;3.30;;;3.10;;
14256;SDS011;7212;53.254;6.456;2022-07-25T02:11:36;3.10;;;2.90;;
14256;SDS011;7212;53.254;6.456;2022-07-25T02:14:02;3.28;;;3.08;;
14256;SDS011;7212;53.254;6.456;2022-07-25T02:16:27;3.20;;;2.92;;
14256;SDS011;7212;53.254;6.456;2022-07-25T02:18:53;3.15;;;2.95;;
14256;SDS011;7212;53.254;6.456;2022-07-25T02:21:19;3.00;;;2.80;;
14256;SDS011;7212;53.254;6.456;2022-07-25T02:23:45;3.08;;;2.88;;
14256;SDS011;7212;53.254;6.456;2022-07-25T02:26:11;3.40;;;3.15;;
14256;SDS011;7212;53.254;6.456;2022-07-25T02:28:37;3.20;;;3.00;;
14256;SDS011;7212;53.254;6.456;2022-07-25T02:31:03;2.90;;;2.70;;
14256;SDS011;7212;53.254;6.456;2022-07-25T02:33:30;3.10;;;2.80;;
14256;SDS011;7212;53.254;6.456;2022-07-25T02:35:56;3.17;;;2.88;;
14256;SDS011;7212;53.254;6.456;2022-07-25T02:38:21;3.20;;;3.00;;
14256;SDS011;7212;53.254;6.456;2022-07-25T02:40:48;2.90;;;2.70;;
14256;SDS011;7212;53.254;6.456;2022-07-25T02:43:14;2.90;;;2.70;;
14256;SDS011;7212;53.254;6.456;2022-07-25T02:45:40;3.13;;;2.92;;
14256;SDS011;7212;53.254;6.456;2022-07-25T02:48:06;3.33;;;3.13;;
14256;SDS011;7212;53.254;6.456;2022-07-25T02:50:32;3.25;;;2.95;;
14256;SDS011;7212;53.254;6.456;2022-07-25T02:52:58;3.20;;;3.00;;
14256;SDS011;7212;53.254;6.456;2022-07-25T02:55:23;2.95;;;2.75;;
14256;SDS011;7212;53.254;6.456;2022-07-25T02:57:49;3.25;;;3.03;;
14256;SDS011;7212;53.254;6.456;2022-07-25T03:00:15;3.38;;;3.08;;
14256;SDS011;7212;53.254;6.456;2022-07-25T03:02:41;2.80;;;2.60;;
14256;SDS011;7212;53.254;6.456;2022-07-25T03:05:08;3.25;;;3.05;;
14256;SDS011;7212;53.254;6.456;2022-07-25T03:07:35;3.08;;;2.88;;
14256;SDS011;7212;53.254;6.456;2022-07-25T03:10:01;4.32;;;3.20;;
14256;SDS011;7212;53.254;6.456;2022-07-25T03:12:28;3.20;;;3.00;;
14256;SDS011;7212;53.254;6.456;2022-07-25T03:14:53;3.30;;;3.10;;
14256;SDS011;7212;53.254;6.456;2022-07-25T03:17:19;3.13;;;2.92;;
14256;SDS011;7212;53.254;6.456;2022-07-25T03:19:45;3.45;;;3.22;;
14256;SDS011;7212;53.254;6.456;2022-07-25T03:22:10;3.20;;;3.00;;
14256;SDS011;7212;53.254;6.456;2022-07-25T03:24:36;3.67;;;3.38;;
14256;SDS011;7212;53.254;6.456;2022-07-25T03:27:02;3.13;;;2.92;;
14256;SDS011;7212;53.254;6.456;2022-07-25T03:29:28;3.17;;;2.97;;
14256;SDS011;7212;53.254;6.456;2022-07-25T03:31:54;3.20;;;3.00;;
14256;SDS011;7212;53.254;6.456;2022-07-25T03:34:19;3.72;;;3.42;;
14256;SDS011;7212;53.254;6.456;2022-07-25T03:36:45;3.88;;;3.58;;
14256;SDS011;7212;53.254;6.456;2022-07-25T03:39:11;3.90;;;3.60;;
14256;SDS011;7212;53.254;6.456;2022-07-25T03:41:36;4.20;;;3.90;;
14256;SDS011;7212;53.254;6.456;2022-07-25T03:44:02;3.90;;;3.60;;
14256;SDS011;7212;53.254;6.456;2022-07-25T03:46:28;3.50;;;3.20;;
14256;SDS011;7212;53.254;6.456;2022-07-25T03:48:53;3.72;;;3.42;;
14256;SDS011;7212;53.254;6.456;2022-07-25T03:51:19;3.90;;;3.60;;
14256;SDS011;7212;53.254;6.456;2022-07-25T03:53:45;4.10;;;3.80;;
14256;SDS011;7212;53.254;6.456;2022-07-25T03:56:25;3.67;;;3.40;;
14256;SDS011;7212;53.254;6.456;2022-07-25T03:59:11;4.68;;;4.32;;
14256;SDS011;7212;53.254;6.456;2022-07-25T04:01:39;4.45;;;4.13;;
14256;SDS011;7212;53.254;6.456;2022-07-25T04:04:05;4.40;;;4.10;;
14256;SDS011;7212;53.254;6.456;2022-07-25T04:06:31;4.60;;;4.20;;
14256;SDS011;7212;53.254;6.456;2022-07-25T04:08:58;4.30;;;3.97;;
14256;SDS011;7212;53.254;6.456;2022-07-25T04:11:24;4.15;;;3.85;;
14256;SDS011;7212;53.254;6.456;2022-07-25T04:13:49;4.68;;;4.28;;
14256;SDS011;7212;53.254;6.456;2022-07-25T04:16:15;4.80;;;4.40;;
14256;SDS011;7212;53.254;6.456;2022-07-25T04:18:42;4.25;;;3.95;;
14256;SDS011;7212;53.254;6.456;2022-07-25T04:21:08;4.75;;;4.38;;
14256;SDS011;7212;53.254;6.456;2022-07-25T04:23:34;4.95;;;4.55;;
14256;SDS011;7212;53.254;6.456;2022-07-25T04:26:00;4.80;;;4.40;;
14256;SDS011;7212;53.254;6.456;2022-07-25T04:28:26;4.68;;;4.28;;
14256;SDS011;7212;53.254;6.456;2022-07-25T04:30:51;4.90;;;4.50;;
14256;SDS011;7212;53.254;6.456;2022-07-25T04:33:17;5.65;;;4.80;;
14256;SDS011;7212;53.254;6.456;2022-07-25T04:35:43;5.18;;;4.68;;
14256;SDS011;7212;53.254;6.456;2022-07-25T04:38:09;4.80;;;4.40;;
14256;SDS011;7212;53.254;6.456;2022-07-25T04:40:34;5.32;;;4.88;;
14256;SDS011;7212;53.254;6.456;2022-07-25T04:43:01;5.35;;;4.95;;
14256;SDS011;7212;53.254;6.456;2022-07-25T04:45:26;5.53;;;5.13;;
14256;SDS011;7212;53.254;6.456;2022-07-25T04:47:52;5.40;;;4.93;;
14256;SDS011;7212;53.254;6.456;2022-07-25T04:50:18;5.78;;;5.38;;
14256;SDS011;7212;53.254;6.456;2022-07-25T04:52:43;5.85;;;5.35;;
14256;SDS011;7212;53.254;6.456;2022-07-25T04:55:09;5.68;;;5.18;;
14256;SDS011;7212;53.254;6.456;2022-07-25T04:57:35;5.97;;;5.47;;
14256;SDS011;7212;53.254;6.456;2022-07-25T05:00:02;6.18;;;5.68;;
14256;SDS011;7212;53.254;6.456;2022-07-25T05:02:29;5.95;;;5.55;;
14256;SDS011;7212;53.254;6.456;2022-07-25T05:04:55;6.65;;;6.05;;
14256;SDS011;7212;53.254;6.456;2022-07-25T05:07:21;5.95;;;5.43;;
14256;SDS011;7212;53.254;6.456;2022-07-25T05:09:46;6.18;;;5.68;;
14256;SDS011;7212;53.254;6.456;2022-07-25T05:12:12;6.38;;;5.82;;
14256;SDS011;7212;53.254;6.456;2022-07-25T05:14:38;5.78;;;5.38;;
14256;SDS011;7212;53.254;6.456;2022-07-25T05:17:04;6.53;;;6.00;;
14256;SDS011;7212;53.254;6.456;2022-07-25T05:19:29;6.43;;;5.93;;
14256;SDS011;7212;53.254;6.456;2022-07-25T05:21:55;6.13;;;5.65;;
14256;SDS011;7212;53.254;6.456;2022-07-25T05:24:21;6.97;;;6.43;;
14256;SDS011;7212;53.254;6.456;2022-07-25T05:26:47;7.07;;;6.47;;
14256;SDS011;7212;53.254;6.456;2022-07-25T05:29:13;8.88;;;7.97;;
14256;SDS011;7212;53.254;6.456;2022-07-25T05:31:39;9.32;;;8.43;;
14256;SDS011;7212;53.254;6.456;2022-07-25T05:34:05;10.02;;;8.45;;
14256;SDS011;7212;53.254;6.456;2022-07-25T05:36:31;10.90;;;8.88;;
14256;SDS011;7212;53.254;6.456;2022-07-25T05:38:57;9.30;;;8.40;;
14256;SDS011;7212;53.254;6.456;2022-07-25T05:41:23;9.27;;;8.38;;
14256;SDS011;7212;53.254;6.456;2022-07-25T05:43:48;9.05;;;8.15;;
14256;SDS011;7212;53.254;6.456;2022-07-25T05:46:14;8.45;;;7.68;;
14256;SDS011;7212;53.254;6.456;2022-07-25T05:48:40;8.90;;;7.97;;
14256;SDS011;7212;53.254;6.456;2022-07-25T05:51:06;8.43;;;7.72;;
14256;SDS011;7212;53.254;6.456;2022-07-25T05:53:32;8.73;;;8.00;;
14256;SDS011;7212;53.254;6.456;2022-07-25T05:55:58;9.63;;;8.63;;
14256;SDS011;7212;53.254;6.456;2022-07-25T05:58:24;9.20;;;8.40;;
14256;SDS011;7212;53.254;6.456;2022-07-25T06:00:49;9.60;;;8.70;;
14256;SDS011;7212;53.254;6.456;2022-07-25T06:03:18;8.85;;;8.05;;
14256;SDS011;7212;53.254;6.456;2022-07-25T06:05:47;9.50;;;8.70;;
14256;SDS011;7212;53.254;6.456;2022-07-25T06:08:13;9.77;;;8.98;;
14256;SDS011;7212;53.254;6.456;2022-07-25T06:10:39;9.23;;;8.43;;
14256;SDS011;7212;53.254;6.456;2022-07-25T06:13:05;9.73;;;8.90;;
14256;SDS011;7212;53.254;6.456;2022-07-25T06:15:31;10.38;;;9.48;;
14256;SDS011;7212;53.254;6.456;2022-07-25T06:17:57;10.23;;;9.23;;
14256;SDS011;7212;53.254;6.456;2022-07-25T06:20:22;10.15;;;9.27;;
14256;SDS011;7212;53.254;6.456;2022-07-25T06:22:48;10.63;;;9.73;;
14256;SDS011;7212;53.254;6.456;2022-07-25T06:25:14;10.50;;;9.60;;
14256;SDS011;7212;53.254;6.456;2022-07-25T06:27:40;10.82;;;9.82;;
14256;SDS011;7212;53.254;6.456;2022-07-25T06:30:06;10.60;;;9.70;;
14256;SDS011;7212;53.254;6.456;2022-07-25T06:32:32;10.07;;;9.27;;
14256;SDS011;7212;53.254;6.456;2022-07-25T06:34:58;10.30;;;9.45;;
14256;SDS011;7212;53.254;6.456;2022-07-25T06:37:24;10.85;;;9.90;;
14256;SDS011;7212;53.254;6.456;2022-07-25T06:39:50;11.05;;;10.10;;
14256;SDS011;7212;53.254;6.456;2022-07-25T06:42:16;11.05;;;10.15;;
14256;SDS011;7212;53.254;6.456;2022-07-25T06:44:41;9.48;;;8.68;;
14256;SDS011;7212;53.254;6.456;2022-07-25T06:47:07;10.50;;;9.60;;
14256;SDS011;7212;53.254;6.456;2022-07-25T06:49:39;11.35;;;10.45;;
14256;SDS011;7212;53.254;6.456;2022-07-25T06:52:06;11.57;;;10.48;;
14256;SDS011;7212;53.254;6.456;2022-07-25T06:54:32;10.85;;;9.95;;
14256;SDS011;7212;53.254;6.456;2022-07-25T06:56:57;9.93;;;9.02;;
14256;SDS011;7212;53.254;6.456;2022-07-25T06:59:23;10.65;;;9.75;;
14256;SDS011;7212;53.254;6.456;2022-07-25T07:01:49;10.10;;;9.30;;
14256;SDS011;7212;53.254;6.456;2022-07-25T07:04:15;10.73;;;9.82;;
14256;SDS011;7212;53.254;6.456;2022-07-25T07:06:40;11.23;;;10.32;;
14256;SDS011;7212;53.254;6.456;2022-07-25T07:09:06;11.65;;;10.70;;
14256;SDS011;7212;53.254;6.456;2022-07-25T07:11:32;11.90;;;10.88;;
14256;SDS011;7212;53.254;6.456;2022-07-25T07:13:58;10.27;;;9.40;;
14256;SDS011;7212;53.254;6.456;2022-07-25T07:16:24;10.30;;;9.40;;
14256;SDS011;7212;53.254;6.456;2022-07-25T07:18:50;11.15;;;10.25;;
14256;SDS011;7212;53.254;6.456;2022-07-25T07:21:16;10.50;;;9.52;;
14256;SDS011;7212;53.254;6.456;2022-07-25T07:23:41;10.55;;;9.52;;
14256;SDS011;7212;53.254;6.456;2022-07-25T07:26:07;10.38;;;9.50;;
14256;SDS011;7212;53.254;6.456;2022-07-25T07:28:32;10.30;;;9.40;;
14256;SDS011;7212;53.254;6.456;2022-07-25T07:30:58;10.02;;;9.13;;
14256;SDS011;7212;53.254;6.456;2022-07-25T07:33:24;10.05;;;9.15;;
14256;SDS011;7212;53.254;6.456;2022-07-25T07:35:49;9.30;;;8.50;;
14256;SDS011;7212;53.254;6.456;2022-07-25T07:38:16;9.65;;;8.55;;
14256;SDS011;7212;53.254;6.456;2022-07-25T07:40:42;9.10;;;8.40;;
14256;SDS011;7212;53.254;6.456;2022-07-25T07:43:08;8.73;;;8.02;;
14256;SDS011;7212;53.254;6.456;2022-07-25T07:45:33;9.43;;;8.52;;
14256;SDS011;7212;53.254;6.456;2022-07-25T07:47:59;8.70;;;8.00;;
14256;SDS011;7212;53.254;6.456;2022-07-25T07:50:25;7.88;;;7.28;;
14256;SDS011;7212;53.254;6.456;2022-07-25T07:52:52;8.38;;;7.78;;
14256;SDS011;7212;53.254;6.456;2022-07-25T07:55:19;8.60;;;7.88;;
14256;SDS011;7212;53.254;6.456;2022-07-25T07:58:04;7.72;;;7.13;;
14256;SDS011;7212;53.254;6.456;2022-07-25T08:00:31;7.25;;;6.70;;
14256;SDS011;7212;53.254;6.456;2022-07-25T08:03:00;7.80;;;7.10;;
14256;SDS011;7212;53.254;6.456;2022-07-25T08:07:52;7.50;;;6.90;;
14256;SDS011;7212;53.254;6.456;2022-07-25T08:10:22;6.97;;;6.38;;
14256;SDS011;7212;53.254;6.456;2022-07-25T08:12:50;6.60;;;6.10;;
14256;SDS011;7212;53.254;6.456;2022-07-25T08:15:16;7.03;;;6.32;;
14256;SDS011;7212;53.254;6.456;2022-07-25T08:17:43;6.25;;;5.75;;
14256;SDS011;7212;53.254;6.456;2022-07-25T08:20:10;6.25;;;5.72;;
14256;SDS011;7212;53.254;6.456;2022-07-25T08:22:39;6.15;;;5.65;;
14256;SDS011;7212;53.254;6.456;2022-07-25T08:25:15;5.10;;;4.70;;
14256;SDS011;7212;53.254;6.456;2022-07-25T08:27:43;5.60;;;5.10;;
14256;SDS011;7212;53.254;6.456;2022-07-25T08:30:09;5.70;;;5.20;;
14256;SDS011;7212;53.254;6.456;2022-07-25T08:32:46;5.20;;;4.70;;
14256;SDS011;7212;53.254;6.456;2022-07-25T08:35:12;5.25;;;4.75;;
14256;SDS011;7212;53.254;6.456;2022-07-25T08:37:38;5.32;;;4.93;;
14256;SDS011;7212;53.254;6.456;2022-07-25T08:40:04;4.60;;;4.20;;
14256;SDS011;7212;53.254;6.456;2022-07-25T08:42:30;4.97;;;4.57;;
14256;SDS011;7212;53.254;6.456;2022-07-25T08:44:58;4.75;;;4.35;;
14256;SDS011;7212;53.254;6.456;2022-07-25T08:47:26;5.05;;;4.63;;
14256;SDS011;7212;53.254;6.456;2022-07-25T08:49:53;4.45;;;4.05;;
14256;SDS011;7212;53.254;6.456;2022-07-25T08:52:20;3.67;;;3.38;;
14256;SDS011;7212;53.254;6.456;2022-07-25T08:54:48;4.22;;;3.38;;
14256;SDS011;7212;53.254;6.456;2022-07-25T08:57:15;3.22;;;2.92;;
14256;SDS011;7212;53.254;6.456;2022-07-25T08:59:41;3.15;;;2.85;;
14256;SDS011;7212;53.254;6.456;2022-07-25T09:02:11;3.03;;;2.75;;
14256;SDS011;7212;53.254;6.456;2022-07-25T09:04:40;2.55;;;2.30;;
14256;SDS011;7212;53.254;6.456;2022-07-25T09:07:07;2.63;;;2.30;;
14256;SDS011;7212;53.254;6.456;2022-07-25T09:09:34;2.40;;;2.20;;
14256;SDS011;7212;53.254;6.456;2022-07-25T09:12:02;2.30;;;2.00;;
14256;SDS011;7212;53.254;6.456;2022-07-25T09:14:28;2.13;;;1.92;;
14256;SDS011;7212;53.254;6.456;2022-07-25T09:16:54;2.22;;;2.00;;
14256;SDS011;7212;53.254;6.456;2022-07-25T09:19:20;3.83;;;2.08;;
14256;SDS011;7212;53.254;6.456;2022-07-25T09:21:58;2.40;;;2.20;;
14256;SDS011;7212;53.254;6.456;2022-07-25T09:24:26;2.53;;;2.33;;
14256;SDS011;7212;53.254;6.456;2022-07-25T09:26:53;1.95;;;1.75;;
14256;SDS011;7212;53.254;6.456;2022-07-25T09:29:25;2.10;;;1.90;;
14256;SDS011;7212;53.254;6.456;2022-07-25T09:31:55;2.10;;;1.90;;
14256;SDS011;7212;53.254;6.456;2022-07-25T09:36:58;2.03;;;1.90;;
14256;SDS011;7212;53.254;6.456;2022-07-25T09:39:32;2.00;;;1.90;;
14256;SDS011;7212;53.254;6.456;2022-07-25T09:42:14;1.83;;;1.73;;
14256;SDS011;7212;53.254;6.456;2022-07-25T09:45:07;2.22;;;2.03;;
14256;SDS011;7212;53.254;6.456;2022-07-25T09:47:37;1.80;;;1.70;;
14256;SDS011;7212;53.254;6.456;2022-07-25T09:50:24;2.03;;;1.85;;
14256;SDS011;7212;53.254;6.456;2022-07-25T09:52:52;2.67;;;2.00;;
14256;SDS011;7212;53.254;6.456;2022-07-25T09:55:19;2.03;;;1.90;;
14256;SDS011;7212;53.254;6.456;2022-07-25T09:57:46;1.77;;;1.67;;
14256;SDS011;7212;53.254;6.456;2022-07-25T10:00:18;2.65;;;1.90;;
14256;SDS011;7212;53.254;6.456;2022-07-25T10:08:04;2.30;;;2.10;;
14256;SDS011;7212;53.254;6.456;2022-07-25T10:10:36;2.00;;;1.90;;
14256;SDS011;7212;53.254;6.456;2022-07-25T10:13:08;2.20;;;2.00;;
14256;SDS011;7212;53.254;6.456;2022-07-25T10:15:53;2.20;;;2.00;;
14256;SDS011;7212;53.254;6.456;2022-07-25T10:18:22;2.85;;;2.17;;
14256;SDS011;7212;53.254;6.456;2022-07-25T10:20:51;2.38;;;2.17;;
14256;SDS011;7212;53.254;6.456;2022-07-25T10:23:19;3.15;;;2.80;;
14256;SDS011;7212;53.254;6.456;2022-07-25T10:25:57;2.83;;;2.20;;
14256;SDS011;7212;53.254;6.456;2022-07-25T10:28:49;2.50;;;2.30;;
14256;SDS011;7212;53.254;6.456;2022-07-25T10:31:17;3.10;;;2.45;;
14256;SDS011;7212;53.254;6.456;2022-07-25T10:34:10;3.88;;;2.30;;
14256;SDS011;7212;53.254;6.456;2022-07-25T10:36:40;2.60;;;2.30;;
14256;SDS011;7212;53.254;6.456;2022-07-25T10:39:18;2.50;;;2.30;;
14256;SDS011;7212;53.254;6.456;2022-07-25T10:41:50;2.60;;;2.40;;
14256;SDS011;7212;53.254;6.456;2022-07-25T10:44:26;2.47;;;2.10;;
14256;SDS011;7212;53.254;6.456;2022-07-25T10:47:03;2.90;;;2.08;;
14256;SDS011;7212;53.254;6.456;2022-07-25T10:49:34;2.20;;;2.00;;
14256;SDS011;7212;53.254;6.456;2022-07-25T10:52:01;2.17;;;1.98;;
14256;SDS011;7212;53.254;6.456;2022-07-25T10:54:32;3.17;;;2.10;;
14256;SDS011;7212;53.254;6.456;2022-07-25T10:56:59;3.92;;;2.45;;
14256;SDS011;7212;53.254;6.456;2022-07-25T10:59:26;3.55;;;2.22;;
14256;SDS011;7212;53.254;6.456;2022-07-25T11:02:03;4.75;;;2.60;;
14256;SDS011;7212;53.254;6.456;2022-07-25T11:04:31;3.47;;;2.50;;
14256;SDS011;7212;53.254;6.456;2022-07-25T11:07:06;2.47;;;2.25;;
14256;SDS011;7212;53.254;6.456;2022-07-25T11:09:33;2.75;;;2.30;;
14256;SDS011;7212;53.254;6.456;2022-07-25T11:11:59;2.75;;;2.15;;
14256;SDS011;7212;53.254;6.456;2022-07-25T11:14:28;3.22;;;2.42;;
14256;SDS011;7212;53.254;6.456;2022-07-25T11:17:07;3.15;;;2.38;;
14256;SDS011;7212;53.254;6.456;2022-07-25T11:19:54;3.88;;;2.10;;
14256;SDS011;7212;53.254;6.456;2022-07-25T11:22:25;3.47;;;2.33;;
14256;SDS011;7212;53.254;6.456;2022-07-25T11:24:52;3.53;;;2.28;;
14256;SDS011;7212;53.254;6.456;2022-07-25T11:27:31;3.42;;;2.53;;
14256;SDS011;7212;53.254;6.456;2022-07-25T11:30:07;3.03;;;2.47;;
14256;SDS011;7212;53.254;6.456;2022-07-25T11:32:50;5.70;;;2.63;;
14256;SDS011;7212;53.254;6.456;2022-07-25T11:35:23;3.50;;;2.20;;
14256;SDS011;7212;53.254;6.456;2022-07-25T11:37:54;3.15;;;2.40;;
14256;SDS011;7212;53.254;6.456;2022-07-25T11:40:20;2.97;;;1.83;;
14256;SDS011;7212;53.254;6.456;2022-07-25T11:42:53;2.72;;;2.08;;
14256;SDS011;7212;53.254;6.456;2022-07-25T11:45:22;3.90;;;2.22;;
14256;SDS011;7212;53.254;6.456;2022-07-25T11:48:11;4.10;;;2.20;;
14256;SDS011;7212;53.254;6.456;2022-07-25T11:50:38;3.63;;;2.33;;
14256;SDS011;7212;53.254;6.456;2022-07-25T11:53:06;4.82;;;2.40;;
14256;SDS011;7212;53.254;6.456;2022-07-25T11:55:34;4.15;;;2.10;;
14256;SDS011;7212;53.254;6.456;2022-07-25T11:58:04;3.95;;;2.20;;
14256;SDS011;7212;53.254;6.456;2022-07-25T12:00:33;4.07;;;2.20;;
14256;SDS011;7212;53.254;6.456;2022-07-25T12:03:06;3.92;;;2.00;;
14256;SDS011;7212;53.254;6.456;2022-07-25T12:05:33;3.08;;;2.08;;
14256;SDS011;7212;53.254;6.456;2022-07-25T12:08:06;4.15;;;2.10;;
14256;SDS011;7212;53.254;6.456;2022-07-25T12:10:34;5.03;;;2.13;;
14256;SDS011;7212;53.254;6.456;2022-07-25T12:13:00;3.50;;;2.17;;
14256;SDS011;7212;53.254;6.456;2022-07-25T12:15:38;4.25;;;2.20;;
14256;SDS011;7212;53.254;6.456;2022-07-25T12:18:05;4.07;;;2.30;;
14256;SDS011;7212;53.254;6.456;2022-07-25T12:20:34;2.80;;;1.92;;
14256;SDS011;7212;53.254;6.456;2022-07-25T12:23:03;4.40;;;2.35;;
14256;SDS011;7212;53.254;6.456;2022-07-25T12:25:34;5.07;;;2.40;;
14256;SDS011;7212;53.254;6.456;2022-07-25T12:28:02;5.13;;;2.83;;
14256;SDS011;7212;53.254;6.456;2022-07-25T12:30:29;2.95;;;2.20;;
14256;SDS011;7212;53.254;6.456;2022-07-25T12:32:56;3.53;;;2.05;;
14256;SDS011;7212;53.254;6.456;2022-07-25T12:35:22;4.78;;;2.10;;
14256;SDS011;7212;53.254;6.456;2022-07-25T12:37:49;3.30;;;2.00;;
14256;SDS011;7212;53.254;6.456;2022-07-25T12:40:15;3.42;;;2.00;;
14256;SDS011;7212;53.254;6.456;2022-07-25T12:42:41;2.50;;;1.80;;
14256;SDS011;7212;53.254;6.456;2022-07-25T12:45:08;3.20;;;2.10;;
14256;SDS011;7212;53.254;6.456;2022-07-25T12:47:34;3.03;;;2.00;;
14256;SDS011;7212;53.254;6.456;2022-07-25T12:50:00;3.78;;;2.30;;
14256;SDS011;7212;53.254;6.456;2022-07-25T12:52:27;5.05;;;2.28;;
14256;SDS011;7212;53.254;6.456;2022-07-25T12:54:52;2.20;;;1.83;;
14256;SDS011;7212;53.254;6.456;2022-07-25T12:57:18;2.67;;;1.80;;
14256;SDS011;7212;53.254;6.456;2022-07-25T12:59:47;3.85;;;2.00;;
14256;SDS011;7212;53.254;6.456;2022-07-25T13:02:13;3.72;;;1.90;;
14256;SDS011;7212;53.254;6.456;2022-07-25T13:04:38;5.25;;;2.00;;
14256;SDS011;7212;53.254;6.456;2022-07-25T13:07:04;3.90;;;2.00;;
14256;SDS011;7212;53.254;6.456;2022-07-25T13:09:30;3.05;;;1.80;;
14256;SDS011;7212;53.254;6.456;2022-07-25T13:11:56;4.50;;;2.03;;
14256;SDS011;7212;53.254;6.456;2022-07-25T13:14:22;5.35;;;2.20;;
14256;SDS011;7212;53.254;6.456;2022-07-25T13:16:48;3.40;;;1.90;;
14256;SDS011;7212;53.254;6.456;2022-07-25T13:19:14;3.58;;;2.05;;
14256;SDS011;7212;53.254;6.456;2022-07-25T13:21:41;5.75;;;2.00;;
14256;SDS011;7212;53.254;6.456;2022-07-25T13:24:07;5.57;;;2.17;;
14256;SDS011;7212;53.254;6.456;2022-07-25T13:26:33;4.07;;;2.42;;
14256;SDS011;7212;53.254;6.456;2022-07-25T13:28:59;3.03;;;2.17;;
14256;SDS011;7212;53.254;6.456;2022-07-25T13:31:25;3.80;;;2.00;;
14256;SDS011;7212;53.254;6.456;2022-07-25T13:33:51;3.92;;;1.63;;
14256;SDS011;7212;53.254;6.456;2022-07-25T13:36:17;4.43;;;2.00;;
14256;SDS011;7212;53.254;6.456;2022-07-25T13:38:43;4.38;;;2.50;;
14256;SDS011;7212;53.254;6.456;2022-07-25T13:41:10;4.22;;;2.30;;
14256;SDS011;7212;53.254;6.456;2022-07-25T13:43:37;3.40;;;2.42;;
14256;SDS011;7212;53.254;6.456;2022-07-25T13:46:03;3.35;;;2.10;;
14256;SDS011;7212;53.254;6.456;2022-07-25T13:48:29;4.80;;;2.35;;
14256;SDS011;7212;53.254;6.456;2022-07-25T13:50:55;5.88;;;2.63;;
14256;SDS011;7212;53.254;6.456;2022-07-25T13:53:22;4.03;;;2.42;;
14256;SDS011;7212;53.254;6.456;2022-07-25T13:55:48;4.95;;;2.58;;
14256;SDS011;7212;53.254;6.456;2022-07-25T13:58:13;3.45;;;2.22;;
14256;SDS011;7212;53.254;6.456;2022-07-25T14:00:39;2.60;;;2.15;;
14256;SDS011;7212;53.254;6.456;2022-07-25T14:03:05;4.13;;;2.35;;
14256;SDS011;7212;53.254;6.456;2022-07-25T14:05:31;4.38;;;2.47;;
14256;SDS011;7212;53.254;6.456;2022-07-25T14:08:00;4.28;;;2.55;;
14256;SDS011;7212;53.254;6.456;2022-07-25T14:10:26;4.10;;;2.35;;
14256;SDS011;7212;53.254;6.456;2022-07-25T14:12:52;4.05;;;2.35;;
14256;SDS011;7212;53.254;6.456;2022-07-25T14:15:17;5.03;;;2.60;;
14256;SDS011;7212;53.254;6.456;2022-07-25T14:17:43;4.47;;;2.30;;
14256;SDS011;7212;53.254;6.456;2022-07-25T14:20:10;3.95;;;2.72;;
14256;SDS011;7212;53.254;6.456;2022-07-25T14:22:36;2.90;;;2.20;;
14256;SDS011;7212;53.254;6.456;2022-07-25T14:25:03;2.72;;;2.05;;
14256;SDS011;7212;53.254;6.456;2022-07-25T14:27:29;3.53;;;2.13;;
14256;SDS011;7212;53.254;6.456;2022-07-25T14:29:55;5.45;;;2.40;;
14256;SDS011;7212;53.254;6.456;2022-07-25T14:32:21;4.63;;;2.22;;
14256;SDS011;7212;53.254;6.456;2022-07-25T14:34:46;4.13;;;2.10;;
14256;SDS011;7212;53.254;6.456;2022-07-25T14:37:12;3.45;;;2.00;;
14256;SDS011;7212;53.254;6.456;2022-07-25T14:39:38;5.13;;;2.22;;
14256;SDS011;7212;53.254;6.456;2022-07-25T14:42:03;4.50;;;2.50;;
14256;SDS011;7212;53.254;6.456;2022-07-25T14:44:29;2.97;;;2.10;;
14256;SDS011;7212;53.254;6.456;2022-07-25T14:46:55;4.45;;;2.30;;
14256;SDS011;7212;53.254;6.456;2022-07-25T14:49:21;3.58;;;2.00;;
14256;SDS011;7212;53.254;6.456;2022-07-25T14:51:47;4.00;;;2.30;;
14256;SDS011;7212;53.254;6.456;2022-07-25T14:54:13;4.05;;;2.30;;
14256;SDS011;7212;53.254;6.456;2022-07-25T14:56:39;5.55;;;2.58;;
14256;SDS011;7212;53.254;6.456;2022-07-25T14:59:06;3.90;;;2.17;;
14256;SDS011;7212;53.254;6.456;2022-07-25T15:01:32;4.40;;;2.63;;
14256;SDS011;7212;53.254;6.456;2022-07-25T15:03:58;5.18;;;2.55;;
14256;SDS011;7212;53.254;6.456;2022-07-25T15:06:24;4.45;;;2.20;;
14256;SDS011;7212;53.254;6.456;2022-07-25T15:08:49;3.72;;;1.98;;
14256;SDS011;7212;53.254;6.456;2022-07-25T15:11:18;3.55;;;2.08;;
14256;SDS011;7212;53.254;6.456;2022-07-25T15:13:45;4.90;;;2.45;;